Sugar Hill, Georgia
Current Conditions -  °F | °C
As of 5:45 PM on Sunday 21 Dec 2014 (Local Time) from KLZU Reporting Station
Overcast Overcast  
Wind Chill: 46°   Ceiling: 2100
Heat Index: 48°   Visibility: 10mi
Dew Point: 37°   Wind: 6mph
Humidity: 66%   Direction: 70°ENE
Pressure: 30.11"   Gusts: NA
Location:  34.1183°N, 84.0234°W
Report Text: KLZU 212245Z 07005KT 10SM OVC021 09/03 A3011 RMK ATIS Q RWY 07 JW
Loading
Personal Weather Stations






























Interactive Weather Map New forecast layout! Learn more

10-Day Weather Forecast

Advertisements
Track Severe Weather on mobile